Arapahoe, Wyoming
Current Conditions -  °F | °C
As of 4:53 PM on Wednesday 26 Nov 2014 (Local Time) from KRIW Reporting Station
Clear Clear  
Wind Chill: 37°   Ceiling: Unl
Heat Index: 42°   Visibility: 10mi
Dew Point: 28°   Wind: 8mph
Humidity: 58%   Direction: 240°WSW
Pressure: 30.15"   Gusts: NA
Location:  42.96°N, 108.49°W
Report Text: KRIW 262353Z AUTO 24007KT 10SM CLR 06/M02 A3015 RMK AO2 SLP225 T00561022 10072 21033 51011
Loading
Personal Weather Stations






























Interactive Weather Map New forecast layout! Learn more

10-Day Weather Forecast

Advertisements
Track Severe Weather on mobile